NSZ2617 ESSA-EFHK
Flight info
| Callsign | NSZ2617 |
|---|---|
| Flight time | 0h 46m |
| Altitude | 35000 |
| Route | TOVRI N851 RIKUM DCT RIRIP Y364 LAKUT |
| Aircraft | B738/M-SDE2E3FGHIRWXY/LB2 |
Departure
| Time | 2026-04-20 14:27 |
|---|---|
| Airport | Stockholm-Arlanda Airport (ESSA) |
Arrival
| Time | 2026-04-20 15:13 |
|---|---|
| Airport | Helsinki Vantaa Airport (EFHK) |
| Time | Latitude | Longitude | Altitude | Speed | Heading |
|---|---|---|---|---|---|
| 2026-04-20 14:08 | 59.65149 | 17.92715 | 110 ft | 0 kts | 190° |
| 2026-04-20 14:19 | 59.65150 | 17.92715 | 110 ft | 0 kts | 190° |
| 2026-04-20 14:20 | 59.65163 | 17.92720 | 110 ft | 2 kts | 191° |
| 2026-04-20 14:20 | 59.65178 | 17.92725 | 110 ft | 2 kts | 191° |
| 2026-04-20 14:20 | 59.65193 | 17.92730 | 110 ft | 2 kts | 190° |
| 2026-04-20 14:20 | 59.65208 | 17.92736 | 110 ft | 2 kts | 191° |
| 2026-04-20 14:21 | 59.65223 | 17.92741 | 110 ft | 2 kts | 191° |
| 2026-04-20 14:21 | 59.65237 | 17.92746 | 110 ft | 2 kts | 191° |
| 2026-04-20 14:21 | 59.65244 | 17.92749 | 110 ft | 0 kts | 191° |
| 2026-04-20 14:23 | 59.65243 | 17.92748 | 110 ft | 1 kts | 195° |
| 2026-04-20 14:23 | 59.65243 | 17.92667 | 107 ft | 11 kts | 287° |
| 2026-04-20 14:24 | 59.65274 | 17.92504 | 105 ft | 13 kts | 277° |
| 2026-04-20 14:24 | 59.65228 | 17.92383 | 105 ft | 11 kts | 189° |
| 2026-04-20 14:24 | 59.65139 | 17.92360 | 105 ft | 16 kts | 191° |
| 2026-04-20 14:24 | 59.64998 | 17.92308 | 107 ft | 22 kts | 191° |
| 2026-04-20 14:25 | 59.64849 | 17.92256 | 109 ft | 20 kts | 192° |
| 2026-04-20 14:25 | 59.64697 | 17.92200 | 111 ft | 26 kts | 191° |
| 2026-04-20 14:25 | 59.64508 | 17.92133 | 113 ft | 27 kts | 190° |
| 2026-04-20 14:25 | 59.64415 | 17.92000 | 112 ft | 14 kts | 261° |
| 2026-04-20 14:26 | 59.64411 | 17.91830 | 114 ft | 11 kts | 281° |
| 2026-04-20 14:26 | 59.64424 | 17.91665 | 114 ft | 13 kts | 280° |
| 2026-04-20 14:26 | 59.64529 | 17.91611 | 114 ft | 27 kts | 9° |
| 2026-04-20 14:26 | 59.64923 | 17.91752 | 107 ft | 90 kts | 9° |
| 2026-04-20 14:27 | 59.65728 | 17.92046 | 115 ft | 143 kts | 9° |
| 2026-04-20 14:27 | 59.66777 | 17.92358 | 495 ft | 157 kts | 7° |
| 2026-04-20 14:27 | 59.67865 | 17.92580 | 1139 ft | 160 kts | 9° |
| 2026-04-20 14:27 | 59.68991 | 17.92987 | 1676 ft | 171 kts | 13° |
| 2026-04-20 14:28 | 59.70169 | 17.93489 | 2164 ft | 181 kts | 13° |
| 2026-04-20 14:28 | 59.71449 | 17.94026 | 2600 ft | 196 kts | 13° |
| 2026-04-20 14:28 | 59.72794 | 17.94577 | 3284 ft | 199 kts | 13° |
| 2026-04-20 14:28 | 59.74133 | 17.95157 | 3919 ft | 203 kts | 19° |
| 2026-04-20 14:29 | 59.75350 | 17.96673 | 4358 ft | 217 kts | 51° |
| 2026-04-20 14:29 | 59.75996 | 17.99462 | 4831 ft | 233 kts | 78° |
| 2026-04-20 14:29 | 59.76039 | 18.02740 | 5305 ft | 248 kts | 91° |
| 2026-04-20 14:29 | 59.75847 | 18.06208 | 5919 ft | 255 kts | 94° |
| 2026-04-20 14:30 | 59.75619 | 18.09662 | 6611 ft | 259 kts | 94° |
| 2026-04-20 14:30 | 59.75395 | 18.13182 | 7365 ft | 260 kts | 93° |
| 2026-04-20 14:30 | 59.75340 | 18.16783 | 7905 ft | 268 kts | 78° |
| 2026-04-20 14:30 | 59.75896 | 18.20358 | 8366 ft | 278 kts | 66° |
| 2026-04-20 14:31 | 59.76682 | 18.23953 | 8921 ft | 288 kts | 65° |
| 2026-04-20 14:31 | 59.77411 | 18.27664 | 9639 ft | 293 kts | 68° |
| 2026-04-20 14:31 | 59.78076 | 18.31470 | 10438 ft | 295 kts | 69° |
| 2026-04-20 14:31 | 59.78733 | 18.35316 | 11172 ft | 298 kts | 69° |
| 2026-04-20 14:32 | 59.79401 | 18.39177 | 11954 ft | 302 kts | 69° |
| 2026-04-20 14:32 | 59.80096 | 18.43133 | 12714 ft | 304 kts | 69° |
| 2026-04-20 14:32 | 59.80797 | 18.47086 | 13456 ft | 308 kts | 69° |
| 2026-04-20 14:32 | 59.81507 | 18.51071 | 14231 ft | 312 kts | 69° |
| 2026-04-20 14:33 | 59.82228 | 18.55129 | 15025 ft | 315 kts | 69° |
| 2026-04-20 14:33 | 59.82954 | 18.59218 | 15779 ft | 318 kts | 69° |
| 2026-04-20 14:33 | 59.83693 | 18.63396 | 16569 ft | 321 kts | 69° |
| 2026-04-20 14:33 | 59.84434 | 18.67594 | 17295 ft | 325 kts | 70° |
| 2026-04-20 14:34 | 59.85178 | 18.71817 | 18030 ft | 328 kts | 70° |
| 2026-04-20 14:34 | 59.85928 | 18.76085 | 18725 ft | 331 kts | 70° |
| 2026-04-20 14:34 | 59.86678 | 18.80364 | 19394 ft | 334 kts | 70° |
| 2026-04-20 14:34 | 59.87442 | 18.84734 | 20064 ft | 337 kts | 70° |
| 2026-04-20 14:35 | 59.88213 | 18.89148 | 20778 ft | 338 kts | 70° |
| 2026-04-20 14:35 | 59.88975 | 18.93530 | 21406 ft | 341 kts | 70° |
| 2026-04-20 14:35 | 59.89747 | 18.97976 | 22021 ft | 344 kts | 70° |
| 2026-04-20 14:35 | 59.90527 | 19.02476 | 22596 ft | 347 kts | 70° |
| 2026-04-20 14:36 | 59.91312 | 19.07018 | 23182 ft | 349 kts | 70° |
| 2026-04-20 14:36 | 59.92104 | 19.11612 | 23722 ft | 352 kts | 70° |
| 2026-04-20 14:36 | 59.92892 | 19.16201 | 24266 ft | 355 kts | 70° |
| 2026-04-20 14:36 | 59.93693 | 19.20867 | 24804 ft | 357 kts | 70° |
| 2026-04-20 14:37 | 59.94497 | 19.25571 | 25323 ft | 360 kts | 70° |
| 2026-04-20 14:37 | 59.95306 | 19.30310 | 25859 ft | 362 kts | 70° |
| 2026-04-20 14:37 | 59.96114 | 19.35057 | 26378 ft | 364 kts | 70° |
| 2026-04-20 14:37 | 59.96926 | 19.39842 | 26863 ft | 367 kts | 71° |
| 2026-04-20 14:38 | 59.97684 | 19.44697 | 27320 ft | 370 kts | 73° |
| 2026-04-20 14:38 | 59.98328 | 19.49657 | 27784 ft | 372 kts | 75° |
| 2026-04-20 14:38 | 59.98914 | 19.54637 | 28235 ft | 375 kts | 76° |
| 2026-04-20 14:38 | 59.99499 | 19.59742 | 28698 ft | 377 kts | 76° |
| 2026-04-20 14:39 | 60.00078 | 19.64781 | 29133 ft | 379 kts | 76° |
| 2026-04-20 14:39 | 60.00678 | 19.69951 | 29600 ft | 381 kts | 77° |
| 2026-04-20 14:39 | 60.01275 | 19.75052 | 30028 ft | 383 kts | 76° |
| 2026-04-20 14:39 | 60.01886 | 19.80246 | 30468 ft | 385 kts | 76° |
| 2026-04-20 14:40 | 60.02495 | 19.85397 | 30846 ft | 388 kts | 76° |
| 2026-04-20 14:40 | 60.03116 | 19.90650 | 31353 ft | 387 kts | 76° |
| 2026-04-20 14:40 | 60.03725 | 19.95803 | 31989 ft | 383 kts | 76° |
| 2026-04-20 14:40 | 60.04332 | 20.00949 | 32481 ft | 381 kts | 76° |
| 2026-04-20 14:41 | 60.04937 | 20.06099 | 32937 ft | 381 kts | 77° |
| 2026-04-20 14:41 | 60.05532 | 20.11172 | 33451 ft | 378 kts | 76° |
| 2026-04-20 14:41 | 60.06131 | 20.16302 | 33901 ft | 377 kts | 76° |
| 2026-04-20 14:41 | 60.06717 | 20.21339 | 34335 ft | 375 kts | 76° |
| 2026-04-20 14:42 | 60.07308 | 20.26442 | 34749 ft | 374 kts | 76° |
| 2026-04-20 14:42 | 60.07886 | 20.31445 | 35097 ft | 373 kts | 76° |
| 2026-04-20 14:42 | 60.08463 | 20.36451 | 35317 ft | 373 kts | 76° |
| 2026-04-20 14:42 | 60.09045 | 20.41528 | 35373 ft | 378 kts | 76° |
| 2026-04-20 14:43 | 60.10209 | 20.51734 | 35373 ft | 374 kts | 76° |
| 2026-04-20 14:43 | 60.11356 | 20.61856 | 35367 ft | 374 kts | 76° |
| 2026-04-20 14:44 | 60.12495 | 20.71995 | 35370 ft | 374 kts | 77° |
| 2026-04-20 14:44 | 60.13623 | 20.82105 | 35368 ft | 373 kts | 77° |
| 2026-04-20 14:45 | 60.14745 | 20.92237 | 35366 ft | 373 kts | 77° |
| 2026-04-20 14:45 | 60.15861 | 21.02399 | 35362 ft | 374 kts | 77° |
| 2026-04-20 14:46 | 60.16965 | 21.12525 | 35359 ft | 371 kts | 77° |
| 2026-04-20 14:46 | 60.18061 | 21.22656 | 35361 ft | 373 kts | 77° |
| 2026-04-20 14:47 | 60.19143 | 21.32730 | 35358 ft | 371 kts | 77° |
| 2026-04-20 14:48 | 60.20744 | 21.47780 | 35024 ft | 363 kts | 77° |
| 2026-04-20 14:48 | 60.21265 | 21.52717 | 34547 ft | 360 kts | 77° |
| 2026-04-20 14:48 | 60.21773 | 21.57533 | 34160 ft | 354 kts | 77° |
| 2026-04-20 14:48 | 60.22280 | 21.62362 | 33712 ft | 350 kts | 77° |
| 2026-04-20 14:49 | 60.22776 | 21.67108 | 33257 ft | 347 kts | 78° |
| 2026-04-20 14:49 | 60.23262 | 21.71769 | 32812 ft | 343 kts | 78° |
| 2026-04-20 14:49 | 60.23748 | 21.76438 | 32365 ft | 340 kts | 77° |
| 2026-04-20 14:49 | 60.24226 | 21.81052 | 31924 ft | 336 kts | 77° |
| 2026-04-20 14:50 | 60.24701 | 21.85651 | 31478 ft | 333 kts | 77° |
| 2026-04-20 14:50 | 60.25164 | 21.90171 | 31035 ft | 335 kts | 77° |
| 2026-04-20 14:50 | 60.25637 | 21.94797 | 30577 ft | 337 kts | 77° |
| 2026-04-20 14:50 | 60.26098 | 21.99311 | 30135 ft | 333 kts | 77° |
| 2026-04-20 14:51 | 60.26558 | 22.03847 | 29688 ft | 329 kts | 77° |
| 2026-04-20 14:51 | 60.27007 | 22.08291 | 29262 ft | 324 kts | 77° |
| 2026-04-20 14:51 | 60.27451 | 22.12697 | 28842 ft | 320 kts | 77° |
| 2026-04-20 14:51 | 60.27887 | 22.17030 | 28425 ft | 316 kts | 77° |
| 2026-04-20 14:52 | 60.28320 | 22.21352 | 28019 ft | 318 kts | 77° |
| 2026-04-20 14:52 | 60.28760 | 22.25758 | 27587 ft | 323 kts | 77° |
| 2026-04-20 14:52 | 60.29201 | 22.30191 | 27153 ft | 320 kts | 77° |
| 2026-04-20 14:52 | 60.29628 | 22.34508 | 26733 ft | 316 kts | 77° |
| 2026-04-20 14:53 | 60.30049 | 22.38773 | 26326 ft | 311 kts | 77° |
| 2026-04-20 14:53 | 60.30466 | 22.43011 | 25913 ft | 307 kts | 77° |
| 2026-04-20 14:53 | 60.30880 | 22.47238 | 25510 ft | 304 kts | 77° |
| 2026-04-20 14:53 | 60.31291 | 22.51429 | 25113 ft | 311 kts | 77° |
| 2026-04-20 14:54 | 60.31705 | 22.55665 | 24693 ft | 311 kts | 77° |
| 2026-04-20 14:54 | 60.32116 | 22.59907 | 24278 ft | 306 kts | 76° |
| 2026-04-20 14:54 | 60.32517 | 22.64070 | 23879 ft | 302 kts | 77° |
| 2026-04-20 14:54 | 60.32911 | 22.68174 | 23498 ft | 297 kts | 77° |
| 2026-04-20 14:55 | 60.33303 | 22.72259 | 23112 ft | 300 kts | 77° |
| 2026-04-20 14:55 | 60.33703 | 22.76435 | 22673 ft | 305 kts | 77° |
| 2026-04-20 14:55 | 60.34099 | 22.80592 | 22309 ft | 301 kts | 77° |
| 2026-04-20 14:55 | 60.34488 | 22.84705 | 21879 ft | 298 kts | 77° |
| 2026-04-20 14:56 | 60.34872 | 22.88774 | 21508 ft | 294 kts | 77° |
| 2026-04-20 14:56 | 60.35250 | 22.92795 | 21102 ft | 290 kts | 77° |
| 2026-04-20 14:56 | 60.35621 | 22.96742 | 20724 ft | 293 kts | 77° |
| 2026-04-20 14:56 | 60.36005 | 23.00836 | 20347 ft | 298 kts | 77° |
| 2026-04-20 14:57 | 60.36387 | 23.04928 | 19923 ft | 295 kts | 77° |
| 2026-04-20 14:57 | 60.36758 | 23.08928 | 19561 ft | 291 kts | 77° |
| 2026-04-20 14:57 | 60.37124 | 23.12896 | 19144 ft | 288 kts | 77° |
| 2026-04-20 14:57 | 60.37487 | 23.16832 | 18806 ft | 287 kts | 77° |
| 2026-04-20 14:58 | 60.37856 | 23.20837 | 18411 ft | 294 kts | 77° |
| 2026-04-20 14:58 | 60.38226 | 23.24872 | 18010 ft | 291 kts | 77° |
| 2026-04-20 14:58 | 60.38589 | 23.28850 | 17591 ft | 286 kts | 77° |
| 2026-04-20 14:58 | 60.38943 | 23.32754 | 17223 ft | 282 kts | 77° |
| 2026-04-20 14:59 | 60.39295 | 23.36649 | 16899 ft | 278 kts | 77° |
| 2026-04-20 14:59 | 60.39639 | 23.40447 | 16519 ft | 278 kts | 77° |
| 2026-04-20 14:59 | 60.39988 | 23.44314 | 16124 ft | 282 kts | 77° |
| 2026-04-20 14:59 | 60.40338 | 23.48218 | 15789 ft | 279 kts | 78° |
| 2026-04-20 15:00 | 60.40387 | 23.52085 | 15269 ft | 283 kts | 98° |
| 2026-04-20 15:00 | 60.39671 | 23.55796 | 14551 ft | 288 kts | 113° |
| 2026-04-20 15:00 | 60.38649 | 23.59287 | 13800 ft | 289 kts | 116° |
| 2026-04-20 15:00 | 60.37628 | 23.62706 | 13138 ft | 285 kts | 115° |
| 2026-04-20 15:01 | 60.36652 | 23.66170 | 12506 ft | 282 kts | 114° |
| 2026-04-20 15:01 | 60.35728 | 23.69610 | 11875 ft | 279 kts | 113° |
| 2026-04-20 15:01 | 60.34838 | 23.73006 | 11194 ft | 276 kts | 113° |
| 2026-04-20 15:01 | 60.33959 | 23.76387 | 10780 ft | 272 kts | 112° |
| 2026-04-20 15:02 | 60.33085 | 23.79751 | 10398 ft | 270 kts | 113° |
| 2026-04-20 15:02 | 60.32227 | 23.83035 | 10253 ft | 260 kts | 113° |
| 2026-04-20 15:02 | 60.31397 | 23.86201 | 9967 ft | 256 kts | 113° |
| 2026-04-20 15:02 | 60.30570 | 23.89364 | 9625 ft | 255 kts | 113° |
| 2026-04-20 15:03 | 60.29749 | 23.92495 | 9317 ft | 255 kts | 113° |
| 2026-04-20 15:03 | 60.28907 | 23.95712 | 8975 ft | 260 kts | 113° |
| 2026-04-20 15:03 | 60.28061 | 23.98930 | 8611 ft | 260 kts | 113° |
| 2026-04-20 15:03 | 60.27228 | 24.02079 | 8291 ft | 257 kts | 114° |
| 2026-04-20 15:04 | 60.26394 | 24.05234 | 7959 ft | 256 kts | 114° |
| 2026-04-20 15:04 | 60.25563 | 24.08375 | 7645 ft | 254 kts | 114° |
| 2026-04-20 15:04 | 60.24736 | 24.11497 | 7323 ft | 252 kts | 114° |
| 2026-04-20 15:04 | 60.23917 | 24.14588 | 6994 ft | 250 kts | 114° |
| 2026-04-20 15:05 | 60.23102 | 24.17657 | 6674 ft | 252 kts | 114° |
| 2026-04-20 15:05 | 60.22264 | 24.20819 | 6355 ft | 257 kts | 114° |
| 2026-04-20 15:05 | 60.21423 | 24.23978 | 6022 ft | 255 kts | 114° |
| 2026-04-20 15:05 | 60.20582 | 24.27134 | 5703 ft | 263 kts | 114° |
| 2026-04-20 15:06 | 60.19712 | 24.30394 | 5368 ft | 264 kts | 114° |
| 2026-04-20 15:06 | 60.18847 | 24.33623 | 5011 ft | 262 kts | 114° |
| 2026-04-20 15:06 | 60.18026 | 24.36870 | 4616 ft | 260 kts | 105° |
| 2026-04-20 15:06 | 60.17848 | 24.40320 | 4292 ft | 248 kts | 79° |
| 2026-04-20 15:07 | 60.18177 | 24.43710 | 4191 ft | 247 kts | 73° |
| 2026-04-20 15:07 | 60.18570 | 24.47087 | 4103 ft | 248 kts | 73° |
| 2026-04-20 15:07 | 60.18939 | 24.50467 | 4019 ft | 246 kts | 74° |
| 2026-04-20 15:07 | 60.19273 | 24.53741 | 3929 ft | 234 kts | 75° |
| 2026-04-20 15:08 | 60.19588 | 24.56931 | 3668 ft | 232 kts | 75° |
| 2026-04-20 15:08 | 60.19897 | 24.60055 | 3379 ft | 229 kts | 75° |
| 2026-04-20 15:08 | 60.20208 | 24.63194 | 3153 ft | 225 kts | 75° |
| 2026-04-20 15:08 | 60.20564 | 24.66202 | 2947 ft | 219 kts | 66° |
| 2026-04-20 15:09 | 60.21310 | 24.68740 | 2742 ft | 209 kts | 48° |
| 2026-04-20 15:09 | 60.22294 | 24.70821 | 2534 ft | 203 kts | 43° |
| 2026-04-20 15:09 | 60.23261 | 24.72813 | 2381 ft | 193 kts | 45° |
| 2026-04-20 15:09 | 60.24129 | 24.74734 | 2239 ft | 174 kts | 46° |
| 2026-04-20 15:10 | 60.24921 | 24.76480 | 2032 ft | 164 kts | 45° |
| 2026-04-20 15:10 | 60.25672 | 24.78098 | 1814 ft | 154 kts | 45° |
| 2026-04-20 15:10 | 60.26381 | 24.79645 | 1612 ft | 149 kts | 46° |
| 2026-04-20 15:10 | 60.27072 | 24.81161 | 1446 ft | 150 kts | 45° |
| 2026-04-20 15:11 | 60.27763 | 24.82665 | 1185 ft | 141 kts | 44° |
| 2026-04-20 15:11 | 60.28412 | 24.84082 | 1017 ft | 133 kts | 45° |
| 2026-04-20 15:11 | 60.29037 | 24.85439 | 857 ft | 132 kts | 45° |
| 2026-04-20 15:11 | 60.29673 | 24.86842 | 660 ft | 137 kts | 44° |
| 2026-04-20 15:12 | 60.30311 | 24.88242 | 481 ft | 131 kts | 45° |
| 2026-04-20 15:12 | 60.30943 | 24.89613 | 296 ft | 136 kts | 44° |
| 2026-04-20 15:12 | 60.31577 | 24.91003 | 162 ft | 129 kts | 45° |
| 2026-04-20 15:12 | 60.32094 | 24.92116 | 178 ft | 92 kts | 47° |
| 2026-04-20 15:13 | 60.32482 | 24.92991 | 189 ft | 76 kts | 46° |
| 2026-04-20 15:13 | 60.32813 | 24.93727 | 198 ft | 66 kts | 48° |
| 2026-04-20 15:13 | 60.33061 | 24.94270 | 202 ft | 35 kts | 48° |
| 2026-04-20 15:13 | 60.33115 | 24.94603 | 201 ft | 22 kts | 91° |
| 2026-04-20 15:14 | 60.33114 | 24.94911 | 203 ft | 21 kts | 93° |
| 2026-04-20 15:14 | 60.33125 | 24.95193 | 204 ft | 19 kts | 59° |
| 2026-04-20 15:14 | 60.33207 | 24.95417 | 204 ft | 18 kts | 76° |
| 2026-04-20 15:14 | 60.33143 | 24.95637 | 199 ft | 20 kts | 136° |
| 2026-04-20 15:15 | 60.33025 | 24.95821 | 196 ft | 22 kts | 149° |
| 2026-04-20 15:15 | 60.32889 | 24.95981 | 195 ft | 22 kts | 149° |
| 2026-04-20 15:15 | 60.32751 | 24.96143 | 193 ft | 23 kts | 150° |
| 2026-04-20 15:15 | 60.32609 | 24.96309 | 189 ft | 19 kts | 150° |
| 2026-04-20 15:16 | 60.32546 | 24.96383 | 187 ft | 7 kts | 150° |
| 2026-04-20 15:16 | 60.32465 | 24.96476 | 183 ft | 19 kts | 150° |
| 2026-04-20 15:16 | 60.32333 | 24.96631 | 177 ft | 22 kts | 150° |
| 2026-04-20 15:16 | 60.32195 | 24.96792 | 176 ft | 23 kts | 150° |
| 2026-04-20 15:17 | 60.32058 | 24.96953 | 180 ft | 21 kts | 150° |
| 2026-04-20 15:17 | 60.31945 | 24.97069 | 185 ft | 11 kts | 157° |
| 2026-04-20 15:17 | 60.31917 | 24.97017 | 186 ft | 4 kts | 241° |
| 2026-04-20 15:17 | 60.31905 | 24.96970 | 186 ft | 3 kts | 243° |
| 2026-04-20 15:18 | 60.31904 | 24.96966 | 186 ft | 0 kts | 243° |
| 2026-04-20 15:18 | 60.31903 | 24.96964 | 186 ft | 0 kts | 243° |